Time;durP1;ratioP1;P1;durP2;ratioP2;P2;SDS_P1;SDS_P2;PMS_P1;PMS_P2;Temp;Humidity;BMP_temperature;BMP_pressure;BME280_temperature;BME280_humidity;BME280_pressure;Samples;Min_cycle;Max_cycle;Signal;HPM_P1;HPM_P2
2020/12/08 00:01:12;;;;;;;41.47;22.23;;;2.60;98.00;;;;;;4837051;29;20045;-82
2020/12/08 00:03:39;;;;;;;36.53;19.50;;;2.60;97.90;;;;;;4866406;29;20048;-82
2020/12/08 00:06:06;;;;;;;36.80;19.77;;;2.60;97.80;;;;;;4873282;29;20432;-82
2020/12/08 00:08:35;;;;;;;35.77;19.10;;;2.60;97.80;;;;;;4845106;29;20045;-82
2020/12/08 00:11:02;;;;;;;34.50;18.27;;;2.50;97.70;;;;;;4868527;29;20049;-83
2020/12/08 00:13:29;;;;;;;33.30;18.60;;;2.50;97.70;;;;;;4880967;29;21228;-82
2020/12/08 00:16:08;;;;;;;;;;;;;;;;;;;;;
2020/12/08 00:18:35;;;;;;;34.27;18.07;;;2.50;97.80;;;;;;4869310;29;20057;-83
2020/12/08 00:21:02;;;;;;;36.30;18.60;;;2.50;97.90;;;;;;4865392;29;20041;-83
2020/12/08 00:23:32;;;;;;;41.13;19.73;;;2.50;98.00;;;;;;4859679;29;20032;-83
2020/12/08 00:26:00;;;;;;;36.23;18.20;;;2.60;98.00;;;;;;4870335;29;20099;-83
2020/12/08 00:28:33;;;;;;;42.57;21.90;;;2.60;98.00;;;;;;4881908;29;20045;-82
2020/12/08 00:31:00;;;;;;;41.40;21.60;;;2.70;98.00;;;;;;4874488;29;20397;-82
2020/12/08 00:33:31;;;;;;;38.67;19.50;;;2.80;98.10;;;;;;4874961;29;20060;-82
2020/12/08 00:36:02;;;;;;;36.87;18.40;;;2.80;98.10;;;;;;4848013;29;20049;-82
2020/12/08 00:38:29;;;;;;;33.57;19.17;;;2.90;98.20;;;;;;4857599;29;20060;-83
2020/12/08 00:40:56;;;;;;;44.87;21.37;;;3.00;98.20;;;;;;4880448;29;20052;-82
2020/12/08 00:43:22;;;;;;;43.33;21.93;;;3.00;98.20;;;;;;4849627;29;20029;-90
2020/12/08 00:45:52;;;;;;;47.13;21.50;;;3.10;98.20;;;;;;4851664;29;20048;-90
2020/12/08 00:48:19;;;;;;;36.17;20.43;;;3.20;98.10;;;;;;4848175;29;20041;-89
2020/12/08 00:50:46;;;;;;;37.70;19.73;;;3.20;98.00;;;;;;4856432;29;20512;-90
2020/12/08 00:53:13;;;;;;;37.20;19.20;;;3.10;97.90;;;;;;4842068;29;20052;-90
2020/12/08 00:55:40;;;;;;;36.33;20.13;;;3.00;97.80;;;;;;4865484;29;20060;-90
2020/12/08 00:58:07;;;;;;;29.97;15.67;;;3.00;97.80;;;;;;4831992;29;20056;-90
2020/12/08 01:00:33;;;;;;;29.70;15.50;;;2.90;97.80;;;;;;4867199;29;20461;-83
2020/12/08 01:03:01;;;;;;;23.53;12.33;;;2.90;97.70;;;;;;4879719;29;20049;-82
2020/12/08 01:05:28;;;;;;;30.50;16.83;;;2.80;97.70;;;;;;4830909;29;20064;-82
2020/12/08 01:07:59;;;;;;;25.53;14.77;;;2.80;97.80;;;;;;4857939;29;20497;-83
2020/12/08 01:10:29;;;;;;;31.53;17.60;;;2.70;97.70;;;;;;4859216;29;20564;-83
2020/12/08 01:12:56;;;;;;;25.80;16.07;;;2.60;97.70;;;;;;4855795;29;20493;-82
2020/12/08 01:15:23;;;;;;;25.27;14.57;;;2.60;97.80;;;;;;4859856;29;20492;-82
2020/12/08 01:17:51;;;;;;;26.30;14.97;;;2.60;97.80;;;;;;4846606;29;20413;-82
2020/12/08 01:20:17;;;;;;;24.30;14.80;;;2.60;97.80;;;;;;4860692;29;20045;-82
2020/12/08 01:22:47;;;;;;;24.90;14.97;;;2.60;97.90;;;;;;4847278;29;20047;-82
2020/12/08 01:25:14;;;;;;;25.63;14.10;;;2.60;97.90;;;;;;4861537;29;20139;-82
2020/12/08 01:27:43;;;;;;;22.90;13.07;;;2.60;97.90;;;;;;4863619;29;20045;-83
2020/12/08 01:30:11;;;;;;;31.33;17.57;;;2.60;98.00;;;;;;4856413;29;20398;-83
2020/12/08 01:32:44;;;;;;;;;;;2.70;98.00;;;;;;4827507;29;20093;-83
2020/12/08 01:35:10;;;;;;;25.83;14.47;;;2.60;97.90;;;;;;4842571;29;20345;-82
2020/12/08 01:37:37;;;;;;;26.67;15.13;;;2.60;97.80;;;;;;4827564;29;20052;-82
2020/12/08 01:40:08;;;;;;;30.57;16.53;;;2.60;97.70;;;;;;4837713;29;20057;-82
2020/12/08 01:42:35;;;;;;;26.53;15.43;;;2.50;97.70;;;;;;4822936;29;20642;-83
2020/12/08 01:45:07;;;;;;;28.03;14.60;;;2.40;97.60;;;;;;4822246;29;20053;-83
2020/12/08 01:47:34;;;;;;;;;;;2.40;97.60;;;;;;4858798;29;20236;-83
2020/12/08 01:50:03;;;;;;;18.57;11.73;;;2.30;97.60;;;;;;4859606;29;19919;-83
2020/12/08 01:52:35;;;;;;;21.27;12.90;;;2.20;97.60;;;;;;4838258;29;20045;-83
2020/12/08 01:55:06;;;;;;;24.57;13.87;;;2.20;97.70;;;;;;4831724;29;20053;-82
2020/12/08 01:57:39;;;;;;;;;;;2.20;97.70;;;;;;4845834;29;20052;-83
2020/12/08 02:00:10;;;;;;;25.10;14.37;;;2.20;97.80;;;;;;4838536;29;20306;-82
2020/12/08 02:02:44;;;;;;;26.60;16.23;;;2.10;97.70;;;;;;4865420;29;20396;-82
2020/12/08 02:05:30;;;;;;;24.23;14.50;;;2.10;97.70;;;;;;4856676;29;22074;-82
2020/12/08 02:07:57;;;;;;;21.60;13.33;;;2.10;97.70;;;;;;4883952;29;20582;-83
2020/12/08 02:10:25;;;;;;;22.03;12.90;;;2.10;97.70;;;;;;4856415;29;20037;-82
2020/12/08 02:12:53;;;;;;;18.93;10.90;;;2.00;97.70;;;;;;4868296;29;20126;-91
2020/12/08 02:15:29;;;;;;;24.77;15.27;;;2.00;97.70;;;;;;4867454;29;20052;-90
2020/12/08 02:17:57;;;;;;;21.80;12.50;;;2.00;97.80;;;;;;4861052;29;20041;-92
2020/12/08 02:20:26;;;;;;;18.47;11.87;;;2.00;97.80;;;;;;4864174;29;20051;-90
2020/12/08 02:22:58;;;;;;;24.53;13.27;;;2.00;97.80;;;;;;4865029;29;20037;-89
2020/12/08 02:25:28;;;;;;;24.53;14.90;;;2.00;97.80;;;;;;4876452;29;20044;-90
2020/12/08 02:27:56;;;;;;;31.47;17.67;;;2.00;97.80;;;;;;4865141;29;20053;-90
2020/12/08 02:30:23;;;;;;;26.97;14.73;;;2.00;97.80;;;;;;4861948;29;20041;-90
2020/12/08 02:32:50;;;;;;;23.83;13.33;;;2.00;97.80;;;;;;4858941;29;20397;-90
2020/12/08 02:35:17;;;;;;;24.03;14.10;;;2.00;97.70;;;;;;4878139;29;20044;-91
2020/12/08 02:37:47;;;;;;;24.77;14.47;;;2.00;97.70;;;;;;4879641;29;20060;-89
2020/12/08 02:40:14;;;;;;;21.23;13.47;;;2.00;97.70;;;;;;4864610;29;20036;-89
2020/12/08 02:42:44;;;;;;;28.40;15.70;;;2.00;97.80;;;;;;4861687;29;20044;-89
2020/12/08 02:45:14;;;;;;;31.23;17.50;;;2.00;97.80;;;;;;4863582;29;20480;-89
2020/12/08 02:47:41;;;;;;;29.70;17.33;;;2.00;97.80;;;;;;4856784;29;20024;-91
2020/12/08 02:50:09;;;;;;;34.27;17.80;;;2.00;97.80;;;;;;4871621;29;20499;-89
2020/12/08 02:52:38;;;;;;;32.30;17.63;;;2.00;97.80;;;;;;4856483;29;20049;-89
2020/12/08 02:55:06;;;;;;;32.17;15.90;;;2.00;97.80;;;;;;4869655;29;20049;-89
2020/12/08 02:57:39;;;;;;;32.87;17.87;;;2.00;97.80;;;;;;4859845;29;20048;-89
2020/12/08 03:00:07;;;;;;;20.70;11.73;;;2.00;97.80;;;;;;4861112;29;20384;-90
2020/12/08 03:02:34;;;;;;;21.73;12.67;;;2.00;97.80;;;;;;4852557;29;20056;-90
2020/12/08 03:05:01;;;;;;;22.67;12.27;;;2.00;97.80;;;;;;4865537;29;20044;-89
2020/12/08 03:07:35;;;;;;;23.97;13.70;;;1.90;97.70;;;;;;4859152;29;20037;-89
2020/12/08 03:10:05;;;;;;;17.33;9.83;;;1.90;97.70;;;;;;4852615;29;20053;-89
2020/12/08 03:12:36;;;;;;;22.53;13.17;;;1.90;97.70;;;;;;4855914;29;20446;-89
2020/12/08 03:15:07;;;;;;;26.40;14.03;;;1.90;97.70;;;;;;4851148;29;20040;-89
2020/12/08 03:17:40;;;;;;;22.53;11.60;;;1.90;97.70;;;;;;4864246;29;20063;-89
2020/12/08 03:20:09;;;;;;;24.07;13.50;;;1.80;97.70;;;;;;4871355;29;20052;-88
2020/12/08 03:22:42;;;;;;;25.47;13.20;;;1.80;97.70;;;;;;4851124;29;20040;-89
2020/12/08 03:25:14;;;;;;;29.93;16.57;;;1.80;97.70;;;;;;4856542;29;20049;-89
2020/12/08 03:27:40;;;;;;;26.70;14.87;;;1.80;97.70;;;;;;4872949;29;20043;-90
2020/12/08 03:30:07;;;;;;;26.43;14.90;;;1.80;97.70;;;;;;4867682;29;20041;-89
2020/12/08 03:32:36;;;;;;;24.57;15.17;;;1.80;97.70;;;;;;4860783;29;20075;-89
2020/12/08 03:35:06;;;;;;;19.87;11.20;;;1.80;97.70;;;;;;4863735;29;20593;-90
2020/12/08 03:37:35;;;;;;;29.53;14.50;;;1.70;97.70;;;;;;4857645;29;20488;-89
2020/12/08 03:40:07;;;;;;;20.95;12.68;;;1.70;97.70;;;;;;4862750;29;20507;-89
2020/12/08 03:42:34;;;;;;;26.93;14.60;;;1.70;97.70;;;;;;4856126;29;20044;-89
2020/12/08 03:45:04;;;;;;;27.03;15.57;;;1.70;97.70;;;;;;4861708;29;20480;-89
2020/12/08 03:47:44;;;;;;;30.57;15.93;;;1.70;97.70;;;;;;4870541;29;20040;-89
2020/12/08 03:50:15;;;;;;;26.83;14.93;;;1.70;97.70;;;;;;4871707;29;20056;-88
2020/12/08 03:52:43;;;;;;;32.27;18.33;;;1.60;97.70;;;;;;4854758;29;20479;-89
2020/12/08 03:55:10;;;;;;;27.97;15.63;;;1.70;97.70;;;;;;4856638;29;20040;-88
2020/12/08 03:57:37;;;;;;;27.47;16.27;;;1.60;97.70;;;;;;4831555;29;20501;-88
2020/12/08 04:00:08;;;;;;;21.57;12.23;;;1.60;97.60;;;;;;4865535;29;20393;-88
2020/12/08 04:02:42;;;;;;;17.77;9.03;;;1.60;97.60;;;;;;4862746;29;20059;-88
2020/12/08 04:05:16;;;;;;;22.73;14.27;;;1.60;97.60;;;;;;4851773;29;20044;-87
2020/12/08 04:07:54;;;;;;;23.37;13.20;;;1.50;97.60;;;;;;4860933;29;20048;-85
2020/12/08 04:10:27;;;;;;;30.40;16.53;;;1.50;97.70;;;;;;4834907;29;20057;-87
2020/12/08 04:13:02;;;;;;;22.33;14.00;;;1.50;97.70;;;;;;4848672;29;20048;-87
2020/12/08 04:15:49;;;;;;;24.20;14.17;;;1.50;97.60;;;;;;4866463;29;20049;-88
2020/12/08 04:18:16;;;;;;;21.93;13.20;;;1.50;97.60;;;;;;4861446;29;20484;-87
2020/12/08 04:20:44;;;;;;;25.77;16.13;;;1.40;97.60;;;;;;4862250;29;20041;-87
2020/12/08 04:23:12;;;;;;;28.43;17.30;;;1.50;97.70;;;;;;4848644;29;20558;-87
2020/12/08 04:25:40;;;;;;;28.87;16.37;;;1.40;97.60;;;;;;4864922;29;20380;-88
2020/12/08 04:28:08;;;;;;;29.07;17.50;;;1.40;97.60;;;;;;4884878;29;20431;-87
2020/12/08 04:30:42;;;;;;;26.27;14.37;;;1.40;97.60;;;;;;4868781;29;20037;-89
2020/12/08 04:33:13;;;;;;;29.57;16.47;;;1.40;97.70;;;;;;4853679;29;20411;-83
2020/12/08 04:35:43;;;;;;;43.33;25.97;;;1.40;97.60;;;;;;4863765;29;20060;-84
2020/12/08 04:38:10;;;;;;;34.77;21.73;;;1.30;97.60;;;;;;4865359;29;20496;-88
2020/12/08 04:40:37;;;;;;;31.47;18.53;;;1.30;97.60;;;;;;4849519;29;20411;-88
2020/12/08 04:43:05;;;;;;;28.70;16.80;;;1.30;97.60;;;;;;4860824;29;20044;-86
2020/12/08 04:45:38;;;;;;;23.60;14.80;;;1.30;97.70;;;;;;4871815;29;20500;-92
2020/12/08 04:48:07;;;;;;;;;;;1.30;97.70;;;;;;4861204;29;20056;-91
2020/12/08 04:50:34;;;;;;;32.87;18.03;;;1.30;97.70;;;;;;4859311;29;19926;-87
2020/12/08 04:53:06;;;;;;;25.13;15.03;;;1.30;97.70;;;;;;4880835;29;20488;-89
2020/12/08 04:55:33;;;;;;;22.25;13.82;;;1.30;97.70;;;;;;4850303;29;20052;-86
2020/12/08 04:58:01;;;;;;;24.67;13.60;;;1.30;97.60;;;;;;4842738;29;20045;-87
2020/12/08 05:00:28;;;;;;;22.60;14.80;;;1.20;97.60;;;;;;4878304;29;20519;-86
2020/12/08 05:03:00;;;;;;;26.90;16.13;;;1.20;97.60;;;;;;4858423;29;20051;-87
2020/12/08 05:05:38;;;;;;;30.70;18.17;;;1.30;97.70;;;;;;4835976;29;20069;-87
2020/12/08 05:08:18;;;;;;;33.33;18.17;;;1.30;97.80;;;;;;4862230;29;20041;-89
2020/12/08 05:10:46;;;;;;;30.67;17.77;;;1.30;97.80;;;;;;4878102;29;20493;-88
2020/12/08 05:13:19;;;;;;;32.17;18.50;;;1.40;97.80;;;;;;4850393;29;20037;-88
2020/12/08 05:16:01;;;;;;;31.95;19.13;;;1.40;97.80;;;;;;4857337;29;20053;-87
2020/12/08 05:18:28;;;;;;;31.10;18.85;;;1.50;97.80;;;;;;4881101;29;20493;-89
2020/12/08 05:21:09;;;;;;;33.27;20.10;;;1.50;97.80;;;;;;4857119;29;20053;-88
2020/12/08 05:23:41;;;;;;;35.83;18.60;;;1.50;97.80;;;;;;4853168;29;20033;-89
2020/12/08 05:26:09;;;;;;;30.57;18.80;;;1.50;97.70;;;;;;4869844;29;20037;-88
2020/12/08 05:28:37;;;;;;;38.07;21.37;;;1.50;97.70;;;;;;4854208;29;20043;-90
2020/12/08 05:31:06;;;;;;;38.83;23.43;;;1.50;97.70;;;;;;4867176;29;20049;-88
2020/12/08 05:33:39;;;;;;;42.83;24.40;;;1.50;97.80;;;;;;4836038;29;20044;-89
2020/12/08 05:36:10;;;;;;;31.13;18.63;;;1.50;97.80;;;;;;4858979;29;20400;-86
2020/12/08 05:38:38;;;;;;;43.87;24.10;;;1.50;97.80;;;;;;4869094;29;20063;-86
2020/12/08 05:41:06;;;;;;;43.87;25.90;;;1.50;97.80;;;;;;4868929;29;20048;-84
2020/12/08 05:43:41;;;;;;;46.77;26.70;;;1.60;97.80;;;;;;4855250;29;20037;-86
2020/12/08 05:46:09;;;;;;;38.93;23.07;;;1.60;97.80;;;;;;4859905;29;20033;-85
2020/12/08 05:48:37;;;;;;;39.90;24.00;;;1.60;97.80;;;;;;4858795;29;20900;-85
2020/12/08 05:51:04;;;;;;;49.07;29.77;;;1.60;97.80;;;;;;4858362;29;20554;-85
2020/12/08 05:53:31;;;;;;;40.93;24.53;;;1.70;97.90;;;;;;4860722;29;20047;-85
2020/12/08 05:56:32;;;;;;;38.53;23.63;;;1.70;97.80;;;;;;4850366;29;20040;-83
2020/12/08 05:58:59;;;;;;;39.87;22.40;;;1.70;97.80;;;;;;4876542;29;20041;-85
2020/12/08 06:01:26;;;;;;;41.47;24.13;;;1.70;97.80;;;;;;4861145;29;20052;-87
2020/12/08 06:03:58;;;;;;;35.80;22.13;;;1.70;97.80;;;;;;4863633;29;20515;-85
2020/12/08 06:06:32;;;;;;;35.30;21.87;;;1.70;97.80;;;;;;4868678;29;20048;-88
2020/12/08 06:08:59;;;;;;;37.07;21.53;;;1.70;97.80;;;;;;4860184;29;20487;-89
2020/12/08 06:11:30;;;;;;;41.83;24.83;;;1.80;97.90;;;;;;4842582;29;20786;-88
2020/12/08 06:14:47;;;;;;;42.60;25.17;;;1.80;97.90;;;;;;4863795;29;20483;-86
2020/12/08 06:17:17;;;;;;;37.63;22.00;;;1.90;97.90;;;;;;4874196;29;20067;-91
2020/12/08 06:19:44;;;;;;;43.40;25.67;;;1.90;97.90;;;;;;4882466;29;20416;-85
2020/12/08 06:22:12;;;;;;;45.77;27.07;;;2.00;98.00;;;;;;4882263;29;20045;-85
2020/12/08 06:24:49;;;;;;;40.13;24.63;;;2.00;98.00;;;;;;4848915;29;20048;-86
2020/12/08 06:27:21;;;;;;;37.50;21.67;;;2.10;98.00;;;;;;4858244;29;20052;-87
2020/12/08 06:29:56;;;;;;;37.73;22.27;;;2.10;97.90;;;;;;4858721;29;20068;-86
2020/12/08 06:35:33;;;;;;;41.93;24.83;;;2.20;97.90;;;;;;4843040;29;20393;-86
2020/12/08 06:38:01;;;;;;;45.03;26.13;;;2.20;97.90;;;;;;4863690;29;20043;-84
2020/12/08 06:40:28;;;;;;;40.33;22.90;;;2.20;97.90;;;;;;4876594;29;20595;-84
2020/12/08 06:42:55;;;;;;;49.60;28.83;;;2.20;97.90;;;;;;4870589;29;20512;-83
2020/12/08 06:45:24;;;;;;;43.47;26.13;;;2.20;97.90;;;;;;4815548;29;20059;-85
2020/12/08 06:47:56;;;;;;;47.73;28.33;;;2.20;97.90;;;;;;4873514;29;20078;-86
2020/12/08 06:50:32;;;;;;;49.20;27.83;;;2.30;98.00;;;;;;4848392;29;20044;-86
2020/12/08 06:53:03;;;;;;;44.53;27.23;;;2.30;98.00;;;;;;4854332;29;20056;-86
2020/12/08 06:55:47;;;;;;;50.87;28.73;;;2.30;98.00;;;;;;4866482;29;20049;-86
2020/12/08 06:58:18;;;;;;;49.43;30.47;;;2.30;98.00;;;;;;4863547;29;20496;-86
2020/12/08 07:00:45;;;;;;;52.20;30.37;;;2.40;98.10;;;;;;4841203;29;20068;-87
2020/12/08 07:03:16;;;;;;;46.87;26.27;;;2.40;98.00;;;;;;4882138;29;20048;-86
2020/12/08 07:05:45;;;;;;;54.60;29.60;;;2.50;98.00;;;;;;4862238;29;20041;-86
2020/12/08 07:08:17;;;;;;;57.50;32.35;;;2.50;98.00;;;;;;4862368;29;20071;-86
2020/12/08 07:10:45;;;;;;;50.17;28.37;;;2.50;98.00;;;;;;4847520;29;20028;-86
2020/12/08 07:13:17;;;;;;;51.77;29.70;;;2.50;98.00;;;;;;4863225;29;20033;-86
2020/12/08 07:15:55;;;;;;;51.63;30.37;;;2.50;98.00;;;;;;4863134;29;20052;-86
2020/12/08 07:18:30;;;;;;;45.58;26.55;;;2.60;98.00;;;;;;4867553;29;20159;-87
2020/12/08 07:20:57;;;;;;;51.80;28.30;;;2.60;98.00;;;;;;4850905;29;20049;-87
2020/12/08 07:23:27;;;;;;;49.40;26.97;;;2.60;98.00;;;;;;4878986;29;20053;-86
2020/12/08 07:25:59;;;;;;;49.93;29.77;;;2.60;98.00;;;;;;4858518;29;20736;-86
2020/12/08 07:28:26;;;;;;;40.57;23.07;;;2.60;98.00;;;;;;4837288;29;20053;-86
2020/12/08 07:31:03;;;;;;;50.50;28.27;;;2.70;98.00;;;;;;4860198;29;20037;-86
2020/12/08 07:33:32;;;;;;;45.87;25.37;;;2.70;98.00;;;;;;4856885;29;20040;-87
2020/12/08 07:36:04;;;;;;;40.47;23.40;;;2.80;98.10;;;;;;4856341;29;20048;-87
2020/12/08 07:38:39;;;;;;;47.17;27.60;;;2.80;98.10;;;;;;4844017;29;20065;-86
2020/12/08 07:41:19;;;;;;;51.27;28.70;;;2.80;98.00;;;;;;4861676;29;20051;-87
2020/12/08 07:43:46;;;;;;;61.70;34.37;;;2.80;98.00;;;;;;4857934;29;20523;-87
2020/12/08 07:46:20;;;;;;;54.33;30.00;;;2.80;98.00;;;;;;4857516;29;20048;-84
2020/12/08 07:48:57;;;;;;;60.90;32.67;;;2.90;98.10;;;;;;4879255;29;20824;-85
2020/12/08 07:51:27;;;;;;;58.37;33.80;;;2.80;98.00;;;;;;4876983;29;20048;-84
2020/12/08 07:53:59;;;;;;;58.23;31.47;;;2.90;98.00;;;;;;4852840;29;20508;-87
2020/12/08 07:56:30;;;;;;;52.97;30.95;;;2.90;98.10;;;;;;4860342;29;20045;-87
2020/12/08 07:58:58;;;;;;;60.03;32.90;;;2.90;98.00;;;;;;4850121;29;20044;-87
2020/12/08 08:01:25;;;;;;;49.67;26.27;;;3.00;98.10;;;;;;4882474;29;20507;-88
2020/12/08 08:03:52;;;;;;;45.53;25.77;;;3.00;98.10;;;;;;4865588;29;20515;-87
2020/12/08 08:06:20;;;;;;;62.80;33.27;;;3.00;98.00;;;;;;4864970;29;20053;-88
2020/12/08 08:08:49;;;;;;;51.00;28.13;;;3.00;98.00;;;;;;4851933;29;20052;-89
2020/12/08 08:11:16;;;;;;;58.17;32.93;;;3.00;98.00;;;;;;4884330;29;20055;-88
2020/12/08 08:13:46;;;;;;;48.83;25.67;;;3.10;98.00;;;;;;4852703;29;20044;-88
2020/12/08 08:16:18;;;;;;;56.67;31.27;;;3.10;98.00;;;;;;4871106;29;20051;-88
2020/12/08 08:18:45;;;;;;;48.83;28.65;;;3.10;98.00;;;;;;4855162;29;20389;-87
2020/12/08 08:21:15;;;;;;;58.23;31.63;;;3.10;98.00;;;;;;4864087;29;20484;-90
2020/12/08 08:23:44;;;;;;;56.77;32.90;;;3.10;98.00;;;;;;4863263;29;20056;-90
2020/12/08 08:26:18;;;;;;;51.87;30.37;;;3.10;98.00;;;;;;4860849;29;20523;-88
2020/12/08 08:28:48;;;;;;;55.47;31.33;;;3.10;98.00;;;;;;4879675;29;20441;-88
2020/12/08 08:31:18;;;;;;;54.53;29.30;;;3.20;98.10;;;;;;4864800;29;20079;-89
2020/12/08 08:33:54;;;;;;;41.37;24.63;;;3.20;98.10;;;;;;4864823;29;20052;-89
2020/12/08 08:36:22;;;;;;;59.03;30.50;;;3.20;98.10;;;;;;4832413;29;20382;-89
2020/12/08 08:38:51;;;;;;;45.10;25.93;;;3.30;98.00;;;;;;4852772;29;20473;-90
2020/12/08 08:41:27;;;;;;;54.03;31.27;;;3.20;98.00;;;;;;4850075;29;20516;-88
2020/12/08 08:43:58;;;;;;;50.30;26.47;;;3.30;98.00;;;;;;4850371;29;20037;-88
2020/12/08 08:46:27;;;;;;;56.03;32.30;;;3.30;98.00;;;;;;4865804;29;20472;-88
2020/12/08 08:48:54;;;;;;;55.87;29.20;;;3.30;98.00;;;;;;4851848;29;20392;-86
2020/12/08 08:51:24;;;;;;;61.33;33.57;;;3.30;98.00;;;;;;4851280;29;20511;-89
2020/12/08 08:53:51;;;;;;;51.87;30.10;;;3.30;98.00;;;;;;4871034;29;20053;-88
2020/12/08 08:56:18;;;;;;;60.43;32.70;;;3.40;98.10;;;;;;4884481;29;20063;-88
2020/12/08 08:58:50;;;;;;;54.97;32.77;;;3.40;98.00;;;;;;4874228;29;20072;-88
2020/12/08 09:01:18;;;;;;;67.53;37.97;;;3.40;98.00;;;;;;4885520;29;20078;-87
2020/12/08 09:03:47;;;;;;;62.63;34.93;;;3.40;98.00;;;;;;4859886;29;20488;-88
2020/12/08 09:06:19;;;;;;;55.83;32.27;;;3.40;98.00;;;;;;4868060;29;20467;-89
2020/12/08 09:08:48;;;;;;;49.73;28.90;;;3.50;98.00;;;;;;4865027;29;20049;-88
2020/12/08 09:11:21;;;;;;;66.93;35.58;;;3.50;98.10;;;;;;4848408;29;20401;-88
2020/12/08 09:13:49;;;;;;;53.37;31.77;;;3.50;98.00;;;;;;4867780;29;20396;-89
2020/12/08 09:16:16;;;;;;;58.23;32.83;;;3.60;98.10;;;;;;4880958;29;20496;-88
2020/12/08 09:18:43;;;;;;;55.50;32.00;;;3.60;98.10;;;;;;4845147;29;20049;-88
2020/12/08 09:21:15;;;;;;;54.20;31.67;;;3.60;98.10;;;;;;4863967;29;20037;-88
2020/12/08 09:23:42;;;;;;;49.73;29.40;;;3.70;98.10;;;;;;4846715;29;20053;-88
2020/12/08 09:26:09;;;;;;;56.63;32.83;;;3.70;98.10;;;;;;4857394;29;20049;-88
2020/12/08 09:28:39;;;;;;;50.23;30.60;;;3.80;98.00;;;;;;4849016;29;20045;-89
2020/12/08 09:31:06;;;;;;;53.50;31.97;;;3.80;98.10;;;;;;4857114;29;20503;-88
2020/12/08 09:33:38;;;;;;;55.17;31.67;;;3.80;98.10;;;;;;4873174;29;20054;-89
2020/12/08 09:36:06;;;;;;;50.70;30.30;;;3.80;98.10;;;;;;4849070;29;20048;-89
2020/12/08 09:38:33;;;;;;;42.30;25.83;;;3.90;98.30;;;;;;4866982;29;20051;-89
2020/12/08 09:41:00;;;;;;;50.87;30.70;;;3.90;98.00;;;;;;4867213;29;20049;-89
2020/12/08 09:43:26;;;;;;;54.93;32.97;;;4.00;98.10;;;;;;4853910;29;20420;-89
2020/12/08 09:45:54;;;;;;;50.90;28.33;;;4.00;98.00;;;;;;4850399;29;20040;-89
2020/12/08 09:48:20;;;;;;;55.30;33.67;;;4.10;98.00;;;;;;4851925;29;20519;-88
2020/12/08 09:50:47;;;;;;;50.17;28.73;;;4.10;98.00;;;;;;4867922;29;20037;-89
2020/12/08 09:53:14;;;;;;;51.20;30.20;;;4.10;98.00;;;;;;4861868;29;20060;-89
2020/12/08 09:55:43;;;;;;;40.63;21.80;;;4.20;98.10;;;;;;4870240;29;20516;-89
2020/12/08 09:58:10;;;;;;;48.87;26.83;;;4.20;98.10;;;;;;4856898;29;20040;-89
2020/12/08 10:00:40;;;;;;;52.33;31.13;;;4.30;98.10;;;;;;4852394;29;20045;-88
2020/12/08 10:03:12;;;;;;;53.60;30.73;;;4.30;98.00;;;;;;4833144;29;20041;-88
2020/12/08 10:05:39;;;;;;;;;;;4.40;98.10;;;;;;4847705;29;20052;-88
2020/12/08 10:08:06;;;;;;;53.33;30.60;;;4.50;98.10;;;;;;4875525;29;19922;-88
2020/12/08 10:10:33;;;;;;;54.87;29.03;;;4.50;98.10;;;;;;4857400;29;20404;-84
2020/12/08 10:13:00;;;;;;;48.00;28.80;;;4.50;98.10;;;;;;4861300;29;20045;-89
2020/12/08 10:15:32;;;;;;;52.57;31.80;;;4.50;98.00;;;;;;4862466;29;20052;-87
2020/12/08 10:17:58;;;;;;;57.37;34.67;;;4.50;98.00;;;;;;4859863;29;20060;-88
2020/12/08 10:20:25;;;;;;;59.93;34.73;;;4.50;97.90;;;;;;4828697;29;20048;-89
2020/12/08 10:22:54;;;;;;;53.40;29.87;;;4.50;98.00;;;;;;4861764;29;20048;-87
2020/12/08 10:25:21;;;;;;;52.37;30.23;;;4.60;98.10;;;;;;4844942;29;20040;-87
2020/12/08 10:27:47;;;;;;;50.30;30.37;;;4.60;98.10;;;;;;4846593;29;20438;-88
2020/12/08 10:30:16;;;;;;;45.50;29.33;;;4.70;98.00;;;;;;4831109;29;20044;-86
2020/12/08 10:32:43;;;;;;;52.90;31.27;;;4.70;98.00;;;;;;4878116;29;20048;-88
2020/12/08 10:35:10;;;;;;;47.60;30.53;;;4.70;98.00;;;;;;4840826;29;20068;-86
2020/12/08 10:37:36;;;;;;;51.73;31.43;;;4.80;98.00;;;;;;4863584;29;20040;-87
2020/12/08 10:40:05;;;;;;;48.37;29.97;;;4.80;98.00;;;;;;4850704;29;20056;-87
2020/12/08 10:42:32;;;;;;;47.60;30.73;;;4.90;98.10;;;;;;4848925;29;20060;-86
2020/12/08 10:44:58;;;;;;;47.17;30.30;;;4.90;98.00;;;;;;4880678;29;20053;-87
2020/12/08 10:47:25;;;;;;;44.40;31.03;;;4.90;97.90;;;;;;4850884;29;20393;-87
2020/12/08 10:49:54;;;;;;;41.38;28.73;;;5.00;97.90;;;;;;4849450;29;20056;-87
2020/12/08 10:52:21;;;;;;;48.33;31.53;;;5.10;97.80;;;;;;4833641;29;20049;-88
2020/12/08 10:54:48;;;;;;;46.43;31.13;;;5.10;97.70;;;;;;4863348;29;20051;-87
2020/12/08 10:57:24;;;;;;;42.75;28.77;;;5.10;97.70;;;;;;4863119;29;20041;-88
2020/12/08 10:59:57;;;;;;;42.30;29.20;;;5.20;97.80;;;;;;4832720;29;20041;-88
2020/12/08 11:02:26;;;;;;;44.40;28.10;;;5.20;97.70;;;;;;4850631;29;20033;-89
2020/12/08 11:04:52;;;;;;;41.30;27.20;;;5.20;97.70;;;;;;4849483;29;20033;-88
2020/12/08 11:07:22;;;;;;;41.55;28.00;;;5.30;97.70;;;;;;4844342;29;20049;-88
2020/12/08 11:09:49;;;;;;;43.08;28.55;;;5.40;97.60;;;;;;4843584;29;20048;-88
2020/12/08 11:12:15;;;;;;;46.33;31.52;;;5.40;97.80;;;;;;4842056;29;20057;-88
2020/12/08 11:14:45;;;;;;;42.28;26.60;;;5.40;97.50;;;;;;4836758;29;20052;-89
2020/12/08 11:17:13;;;;;;;41.53;26.48;;;5.40;97.40;;;;;;4830883;29;20060;-81
2020/12/08 11:19:40;;;;;;;38.45;25.63;;;5.40;97.40;;;;;;4844719;29;20053;-81
2020/12/08 11:22:06;;;;;;;42.22;28.05;;;5.40;97.50;;;;;;4845312;29;20057;-81
2020/12/08 11:24:33;;;;;;;37.70;26.70;;;5.40;97.40;;;;;;4861030;29;20041;-81
2020/12/08 11:27:02;;;;;;;36.78;26.42;;;5.50;97.40;;;;;;4878651;29;20060;-81
2020/12/08 11:29:28;;;;;;;37.50;26.35;;;5.50;97.30;;;;;;4860856;29;20041;-87
2020/12/08 11:31:57;;;;;;;36.65;25.67;;;5.50;97.20;;;;;;4857776;29;20053;-86
2020/12/08 11:34:24;;;;;;;36.78;25.83;;;5.50;97.30;;;;;;4870733;29;20042;-87
2020/12/08 11:36:55;;;;;;;35.85;24.35;;;5.60;97.30;;;;;;4888900;29;20052;-89
2020/12/08 11:39:22;;;;;;;39.35;26.38;;;5.60;97.20;;;;;;4866328;29;20047;-88
2020/12/08 11:41:48;;;;;;;34.58;23.90;;;5.60;97.10;;;;;;4867487;29;20052;-88
2020/12/08 11:44:15;;;;;;;36.35;23.67;;;5.60;97.00;;;;;;4857297;29;20057;-86
2020/12/08 11:46:42;;;;;;;36.75;25.38;;;5.60;96.90;;;;;;4839599;29;20048;-86
2020/12/08 11:49:09;;;;;;;31.08;23.20;;;5.60;97.00;;;;;;4842852;29;20053;-80
2020/12/08 11:51:35;;;;;;;33.05;24.08;;;5.60;97.00;;;;;;4875492;29;20057;-80
2020/12/08 11:54:04;;;;;;;33.30;24.33;;;5.70;97.00;;;;;;4861405;29;20049;-79
2020/12/08 11:56:31;;;;;;;35.88;24.08;;;5.70;96.80;;;;;;4860469;29;20047;-79
2020/12/08 11:58:57;;;;;;;31.10;22.30;;;5.70;96.80;;;;;;4882681;29;20071;-81
2020/12/08 12:01:24;;;;;;;32.97;23.63;;;5.60;96.80;;;;;;4862039;29;20041;-80
2020/12/08 12:03:51;;;;;;;41.83;28.83;;;5.60;96.70;;;;;;4846737;29;20052;-82
2020/12/08 12:06:18;;;;;;;36.50;25.40;;;5.50;96.70;;;;;;4848241;29;20040;-83
2020/12/08 12:08:45;;;;;;;31.42;22.75;;;5.50;96.70;;;;;;4864872;29;20408;-82
2020/12/08 12:11:11;;;;;;;32.63;21.58;;;5.50;96.80;;;;;;4864002;29;20057;-82
2020/12/08 12:13:38;;;;;;;29.17;19.33;;;5.50;96.80;;;;;;4865103;29;20408;-82
2020/12/08 12:16:05;;;;;;;28.33;20.35;;;5.60;96.90;;;;;;4888947;29;20047;-82
2020/12/08 12:18:32;;;;;;;29.80;22.00;;;5.60;96.90;;;;;;4879774;29;20519;-82
2020/12/08 12:20:59;;;;;;;27.92;20.48;;;5.60;96.90;;;;;;4878494;29;20045;-81
2020/12/08 12:23:25;;;;;;;31.05;21.98;;;5.60;96.80;;;;;;4834914;29;20053;-81
2020/12/08 12:25:52;;;;;;;27.58;18.85;;;5.60;96.80;;;;;;4869000;29;20041;-90
2020/12/08 12:28:18;;;;;;;32.20;21.70;;;5.70;96.90;;;;;;4875319;29;20037;-89
2020/12/08 12:30:45;;;;;;;32.53;22.92;;;5.60;96.90;;;;;;4855819;29;20400;-89
2020/12/08 12:33:12;;;;;;;30.48;22.38;;;5.70;97.00;;;;;;4861448;29;20040;-90
2020/12/08 12:35:41;;;;;;;32.72;22.08;;;5.80;96.90;;;;;;4841071;29;20048;-89
2020/12/08 12:38:08;;;;;;;31.60;21.88;;;5.90;96.80;;;;;;4891105;29;20041;-89
2020/12/08 12:40:35;;;;;;;31.97;23.37;;;5.80;96.50;;;;;;4856697;29;20044;-89
2020/12/08 12:43:01;;;;;;;32.60;23.67;;;5.80;96.30;;;;;;4855251;29;20032;-88
2020/12/08 12:45:29;;;;;;;33.83;22.53;;;5.60;96.20;;;;;;4862020;29;20047;-89
2020/12/08 12:47:55;;;;;;;32.35;23.27;;;5.50;96.20;;;;;;4861226;29;20025;-89
2020/12/08 12:50:25;;;;;;;30.25;22.05;;;5.50;96.20;;;;;;4852052;29;20029;-82
2020/12/08 12:52:52;;;;;;;33.55;23.48;;;5.40;96.20;;;;;;4857193;29;20510;-82
2020/12/08 12:55:18;;;;;;;31.75;21.48;;;5.40;96.30;;;;;;4875617;29;20079;-82